Latest Coastal Weather Observations for Coolangatta

IDQ60701

Issued at 3:12 am EST Wednesday 18 October 2017 (issued every 10 minutes, with the page automatically refreshed every 10 minutes)

About coastal observations | Map of coastal stations | Coastal observations for QLD | Marine services | Other Formats
Station Details ID: 040717 Name: COOLANGATTA Lat: -28.17 Lon: 153.51 Height: 4.0 m
Data from the previous 72 hours. | See also: Recent months at Coolangatta
Date/Time
EST
Temp
°C
Wind Pressure Rain since
9am
mm
Weather Cloud Vis
km
Sea
Height
m
Swell
Dir  Spd
kts
Gust
kts
hPa Trend Height
m
Period
s
Dir
18/03:00am 20.7 ESE 16 22 1023.2 - 1.4 - Cloudy 10 - - - -
18/02:30am 20.7 ESE 15 21 1023.1 - 1.4 - Partly cloudy 10 - - - -
18/02:00am 20.7 ESE 14 19 1023.0 - 1.4 - Partly cloudy 10 - - - -
18/01:30am 20.6 ESE 13 18 1023.1 - 1.4 - Partly cloudy 10 - - - -
18/01:00am 20.6 ESE 15 21 1023.5 - 1.4 - Partly cloudy 10 - - - -
18/12:30am 20.7 ESE 15 19 1024.0 - 1.4 - Cloudy 10 - - - -
18/12:00am 20.5 ESE 14 20 1024.2 - 1.4 - Mostly cloudy 10 - - - -
 
Date/Time
EST
Temp
°C
Wind Pressure Rain since
9am
mm
Weather Cloud Vis
km
Sea
Height
m
Swell
Dir  Spd
kts
Gust
kts
hPa Trend Height
m
Period
s
Dir
17/11:30pm 20.6 ESE 14 19 1024.5 - 1.4 - Partly cloudy 10 - - - -
17/11:00pm 20.6 ESE 16 21 1024.9 - 1.4 - Partly cloudy 10 - - - -
17/10:30pm 20.4 ESE 13 18 1024.9 - 1.4 - Partly cloudy 10 - - - -
17/10:00pm 20.2 ESE 15 19 1024.8 - 1.4 - Partly cloudy 10 - - - -
17/09:45pm 19.8 ESE 14 22 1024.5 - 1.4 - Partly cloudy 10 - - - -
17/09:32pm 19.5 ESE 18 23 1024.5 - 1.4 - Partly cloudy 6 - - - -
17/09:30pm 19.5 ESE 18 23 1024.5 - 1.2 - Partly cloudy 7 - - - -
17/09:00pm 20.8 ESE 18 22 1024.5 - 1.2 - Partly cloudy 10 - - - -
17/08:30pm 20.7 ESE 15 21 1024.6 - 1.2 - Partly cloudy 10 - - - -
17/08:00pm 20.8 ESE 15 21 1024.4 - 1.2 - Partly cloudy 10 - - - -
17/07:30pm 20.5 ESE 16 22 1024.3 - 1.2 - Partly cloudy 10 - - - -
17/07:00pm 20.5 ESE 17 26 1024.0 - 1.2 - Partly cloudy 10 - - - -
17/06:59pm 20.6 ESE 16 26 1023.9 - 1.2 - Partly cloudy 10 - - - -
17/06:30pm 20.7 ESE 16 22 1023.7 - 1.2 - Partly cloudy 10 - - - -
17/06:00pm 20.8 ESE 15 19 1023.4 - 1.2 - Cloudy 10 - - - -
17/05:30pm 20.7 ESE 17 21 1023.1 - 1.2 - Partly cloudy 10 - - - -
17/05:12pm 20.7 ESE 19 30 1022.8 - 1.2 - Partly cloudy 10 - - - -
17/05:00pm 20.7 ESE 17 23 1022.9 - 1.2 - Partly cloudy 10 - - - -
17/04:30pm 20.4 SE 16 23 1022.7 - 1.2 - Partly cloudy 10 - - - -
17/04:00pm 20.1 ESE 20 27 1022.3 - 1.2 - Partly cloudy 10 - - - -
17/03:30pm 21.0 SE 17 22 1022.0 - 1.2 - Partly cloudy 10 - - - -
17/03:00pm 21.1 ESE 17 24 1022.1 - 1.2 - Cloudy 10 - - - -
17/02:30pm 21.2 ESE 19 25 1022.0 - 1.2 - Partly cloudy 10 - - - -
17/02:00pm 21.1 ESE 18 25 1022.0 - 1.2 - Partly cloudy 10 - - - -
17/01:30pm 20.3 SE 15 21 1022.0 - 1.2 - Partly cloudy 10 - - - -
17/01:00pm 19.9 SE 14 24 1022.4 - 1.2 - Partly cloudy 10 - - - -
17/12:41pm 19.7 SE 13 18 1022.7 - 1.0 - Partly cloudy 10 - - - -
17/12:30pm 19.0 ESE 18 25 1022.9 - 1.0 - Partly cloudy 5 - - - -
17/12:17pm 19.7 ESE 17 25 1023.0 - 0.6 - Partly cloudy 6 - - - -
17/12:00pm 21.2 SE 17 22 1022.9 - 0.6 Drizzle Cloudy 10 - - - -
17/11:30am 20.4 ESE 13 19 1023.4 - 0.6 - Partly cloudy 10 - - - -
17/11:00am 20.7 ESE 18 25 1023.6 - 0.6 - Partly cloudy 10 - - - -
17/10:30am 21.9 ESE 19 25 1023.4 - 0.6 - Partly cloudy 10 - - - -
17/10:00am 20.2 SE 14 17 1023.4 - 0.6 - Partly cloudy 10 - - - -
17/09:48am 19.8 SE 15 20 1023.8 - 0.4 - Partly cloudy 10 - - - -
17/09:30am 19.2 ESE 18 26 1024.0 - 0.4 - Partly cloudy 5 - - - -
17/09:24am 19.3 ESE 20 30 1023.9 - 0.0 - Partly cloudy 6 - - - -
17/09:23am 19.5 ESE 21 30 1023.9 - 0.0 - Partly cloudy 6 - - - -
17/09:19am 20.2 ESE 20 30 1023.8 - 0.0 - Partly cloudy 9 - - - -
17/09:00am 21.1 ESE 21 27 1023.4 - 3.8 Drizzle Cloudy 10 - - - -
17/08:30am 20.0 ESE 17 25 1023.3 - 3.8 - Partly cloudy 8 - - - -
17/08:00am 21.6 SE 16 21 1022.8 - 3.8 - Partly cloudy 10 - - - -
17/07:36am 21.1 ESE 18 28 1022.7 - 3.8 - Partly cloudy 10 - - - -
17/07:30am 21.4 ESE 18 25 1022.6 - 3.8 - Partly cloudy 10 - - - -
17/07:00am 21.2 ESE 18 24 1022.1 - 3.8 - Partly cloudy 10 - - - -
17/06:36am 20.7 ESE 18 28 1021.9 - 3.8 - Partly cloudy 10 - - - -
17/06:30am 20.8 ESE 20 28 1021.8 - 3.8 - Partly cloudy 10 - - - -
17/06:00am 20.6 ESE 19 24 1021.7 - 3.8 Drizzle Cloudy 10 - - - -
17/05:30am 20.6 SE 16 22 1021.5 - 3.8 - Partly cloudy 10 - - - -
17/05:00am 20.8 ESE 18 23 1021.3 - 3.8 - Partly cloudy 10 - - - -
17/04:30am 20.8 ESE 19 25 1021.2 - 3.8 - Partly cloudy 10 - - - -
17/04:00am 20.7 ESE 15 22 1021.1 - 3.8 - Partly cloudy 10 - - - -
17/03:30am 20.7 ESE 17 23 1021.1 - 3.8 - Partly cloudy 10 - - - -
17/03:00am 20.7 ESE 17 23 1021.0 - 3.8 - Cloudy 10 - - - -
17/02:30am 20.7 ESE 16 23 1021.0 - 3.8 - Partly cloudy 10 - - - -
17/02:00am 20.6 SE 15 23 1021.0 - 3.8 - Partly cloudy 10 - - - -
17/01:30am 20.8 ESE 18 23 1021.1 - 3.8 - Partly cloudy 10 - - - -
17/01:00am 20.8 ESE 19 25 1021.4 - 3.8 - Partly cloudy 10 - - - -
17/12:51am 20.8 ESE 15 25 1021.5 - 3.8 - Partly cloudy 10 - - - -
17/12:30am 20.8 ESE 18 24 1021.8 - 3.8 - Partly cloudy 10 - - - -
17/12:00am 20.9 ESE 18 24 1022.1 - 3.8 - Cloudy 10 - - - -
 
Date/Time
EST
Temp
°C
Wind Pressure Rain since
9am
mm
Weather Cloud Vis
km
Sea
Height
m
Swell
Dir  Spd
kts
Gust
kts
hPa Trend Height
m
Period
s
Dir
16/11:30pm 20.8 ESE 16 24 1022.3 - 3.8 - Partly cloudy 10 - - - -
16/11:00pm 20.9 SE 16 22 1022.6 - 3.8 - Partly cloudy 10 - - - -
16/10:30pm 20.8 ESE 18 22 1022.6 - 3.8 - Partly cloudy 10 - - - -
16/10:00pm 21.0 ESE 17 22 1022.7 - 3.8 - Partly cloudy 10 - - - -
16/09:30pm 20.8 ESE 18 25 1022.6 - 3.8 - Partly cloudy 10 - - - -
16/09:00pm 20.8 ESE 20 25 1022.5 - 3.8 - Cloudy 10 - - - -
16/08:30pm 20.6 ESE 17 22 1022.2 - 3.8 - Partly cloudy 10 - - - -
16/08:03pm 19.6 ESE 16 23 1022.1 - 3.8 - Partly cloudy 10 - - - -
16/08:00pm 19.4 ESE 17 23 1022.1 - 3.8 - Partly cloudy 9 - - - -
16/07:34pm 19.4 ESE 19 26 1021.9 - 2.8 - Partly cloudy 6 - - - -
16/07:30pm 19.4 ESE 19 26 1021.9 - 2.8 - Partly cloudy 8 - - - -
16/07:14pm 20.1 ESE 15 26 1021.7 - 2.6 - Partly cloudy 10 - - - -
16/07:00pm 19.8 ESE 17 24 1021.6 - 2.6 - Partly cloudy 10 - - - -
16/06:40pm 19.2 ESE 15 28 1021.5 - 2.6 - Partly cloudy 10 - - - -
16/06:30pm 19.4 SE 12 19 1021.4 - 2.6 - Partly cloudy 10 - - - -
16/06:25pm 19.3 ESE 14 19 1021.4 - 2.6 - Partly cloudy 10 - - - -
16/06:20pm 19.2 ESE 17 27 1021.3 - 2.6 - Partly cloudy 10 - - - -
16/06:00pm 19.6 ESE 19 26 1021.3 - 2.2 Rain Cloudy 4 - - - -
16/05:58pm 20.0 ESE 18 26 1021.3 - 2.0 - Partly cloudy 6 - - - -
16/05:30pm 20.5 ESE 18 27 1020.7 - 1.4 - Partly cloudy 10 - - - -
16/05:25pm 20.5 ESE 17 27 1020.6 - 1.4 - Partly cloudy 10 - - - -
16/05:01pm 19.6 SE 11 16 1020.6 - 1.4 - Partly cloudy 10 - - - -
16/05:00pm 19.5 SE 11 17 1020.5 - 1.4 - Partly cloudy 10 - - - -
16/04:46pm 19.5 ESE 19 28 1020.6 - 1.2 - Partly cloudy 5 - - - -
16/04:36pm 19.5 ESE 18 28 1020.6 - 0.8 - Partly cloudy 6 - - - -
16/04:33pm 20.9 ESE 17 24 1020.5 - 0.0 - Partly cloudy 10 - - - -
16/04:30pm 21.7 ESE 15 20 1020.5 - 0.0 - Partly cloudy 10 - - - -
16/04:00pm 22.1 ESE 16 22 1020.2 - 0.0 - Partly cloudy 10 - - - -
16/03:30pm 22.2 ESE 20 25 1020.1 - 0.0 - Partly cloudy 10 - - - -
16/03:00pm 22.3 ESE 18 28 1019.7 - 0.0 - Cloudy 10 - - - -
16/02:40pm 22.2 ESE 18 28 1019.7 - 0.0 - Partly cloudy 10 - - - -
16/02:30pm 22.7 ESE 18 25 1019.7 - 0.0 - Partly cloudy 10 - - - -
16/02:00pm 22.5 ESE 19 28 1019.9 - 0.0 - Partly cloudy 10 - - - -
16/01:58pm 22.6 ESE 18 28 1019.9 - 0.0 - Partly cloudy 10 - - - -
16/01:30pm 23.0 ESE 19 26 1020.1 - 0.0 - Partly cloudy 10 - - - -
16/01:00pm 22.9 ESE 18 23 1020.4 - 0.0 - Partly cloudy 10 - - - -
16/12:30pm 23.0 SE 17 23 1020.7 - 0.0 - Partly cloudy 10 - - - -
16/12:00pm 22.8 SE 20 25 1020.4 - 0.0 - Mostly cloudy 10 - - - -
16/11:30am 24.3 ESE 19 24 1021.0 - 0.0 - Partly cloudy 10 - - - -
16/11:00am 23.7 ESE 19 26 1021.3 - 0.0 - Partly cloudy 10 - - - -
16/10:30am 23.7 ESE 19 26 1021.6 - 0.0 - Partly cloudy 10 - - - -
16/10:00am 23.6 ESE 19 27 1021.5 - 0.0 - Partly cloudy 10 - - - -
16/09:30am 23.0 ESE 18 25 1021.5 - 0.0 - Partly cloudy 10 - - - -
16/09:00am 22.4 ESE 18 24 1021.6 - 38.0 - Cloudy 10 - - - -
16/08:30am 22.4 ESE 16 23 1021.6 - 38.0 - Partly cloudy 10 - - - -
16/08:00am 21.8 ESE 14 20 1021.2 - 38.0 - Partly cloudy 10 - - - -
16/07:30am 21.5 ESE 16 21 1020.9 - 38.0 - Partly cloudy 10 - - - -
16/07:00am 21.2 ESE 17 24 1020.6 - 38.0 - Partly cloudy 10 - - - -
16/06:30am 20.8 ESE 16 23 1020.0 - 38.0 - Partly cloudy 10 - - - -
16/06:00am 20.2 ESE 16 23 1019.6 - 38.0 Rain Cloudy 10 - - - -
16/05:30am 19.4 ESE 17 26 1019.1 - 37.4 - Partly cloudy 10 - - - -
16/05:14am 19.2 ESE 15 26 1019.1 - 37.2 - Partly cloudy 10 - - - -
16/05:11am 19.6 SE 13 18 1019.0 - 37.0 - Partly cloudy 10 - - - -
16/05:00am 19.3 ESE 16 23 1018.9 - 37.0 - Partly cloudy 5 - - - -
16/04:54am 19.6 ESE 17 23 1018.9 - 36.8 - Partly cloudy 6 - - - -
16/04:30am 19.7 ESE 14 19 1018.6 - 36.2 - Partly cloudy 10 - - - -
16/04:00am 18.8 ESE 15 20 1018.6 - 36.2 - Partly cloudy 10 - - - -
16/03:34am 19.0 ESE 15 22 1018.3 - 36.2 - Partly cloudy 10 - - - -
16/03:32am 18.9 E 16 26 1018.2 - 36.2 - Partly cloudy 10 - - - -
16/03:30am 18.7 E 17 26 1018.2 - 36.2 - Partly cloudy 10 - - - -
16/03:04am 19.1 SE 15 28 1018.2 - 35.6 - Partly cloudy 6 - - - -
16/03:03am 19.2 SE 15 28 1018.3 - 35.4 - Partly cloudy 7 - - - -
16/03:00am 19.4 SE 12 18 1018.2 - 34.8 Showers Cloudy 10 - - - -
16/02:30am 19.6 SE 16 21 1018.1 - 34.6 - Partly cloudy 10 - - - -
16/02:00am 19.6 SE 16 25 1018.3 - 34.4 - Partly cloudy 10 - - - -
16/01:44am 20.3 SE 16 29 1018.3 - 34.2 - Partly cloudy 10 - - - -
16/01:30am 20.1 SE 15 19 1018.5 - 34.2 - Partly cloudy 10 - - - -
16/01:00am 19.7 SE 14 19 1018.8 - 34.2 - Partly cloudy 10 - - - -
16/12:39am 19.2 SSE 13 17 1018.9 - 34.2 - Partly cloudy 10 - - - -
16/12:30am 18.9 SE 17 25 1019.1 - 34.2 - Partly cloudy 7 - - - -
16/12:20am 19.6 SE 17 27 1019.4 - 34.0 - Partly cloudy 5 - - - -
16/12:17am 20.1 SE 15 25 1019.4 - 32.6 - Partly cloudy 10 - - - -
16/12:00am 20.0 SE 15 20 1019.5 - 32.6 Drizzle Cloudy 10 - - - -
 
Date/Time
EST
Temp
°C
Wind Pressure Rain since
9am
mm
Weather Cloud Vis
km
Sea
Height
m
Swell
Dir  Spd
kts
Gust
kts
hPa Trend Height
m
Period
s
Dir
15/11:30pm 19.7 SE 12 16 1020.0 - 32.6 - Partly cloudy 10 - - - -
15/11:00pm 19.0 SSE 12 17 1020.0 - 32.6 - Partly cloudy 10 - - - -
15/10:30pm 18.9 SSE 11 17 1020.2 - 32.6 - Partly cloudy 10 - - - -
15/10:00pm 19.0 SSE 14 22 1020.2 - 32.4 - Partly cloudy 10 - - - -
15/09:30pm 19.1 SSE 11 16 1020.3 - 32.2 - Partly cloudy 10 - - - -
15/09:00pm 18.9 SSE 13 16 1020.3 - 32.2 Rain Partly cloudy 10 - - - -
15/08:30pm 17.8 SE 11 16 1020.3 - 32.0 - Partly cloudy 10 - - - -
15/08:19pm 17.8 SE 13 18 1020.3 - 32.0 - Partly cloudy 9 - - - -
15/08:00pm 17.3 ESE 15 22 1020.3 - 30.8 - Partly cloudy 5 - - - -
15/07:56pm 17.5 ESE 15 24 1020.4 - 30.2 - Partly cloudy 6 - - - -
15/07:30pm 18.4 SE 14 19 1019.8 - 29.2 - Partly cloudy 10 - - - -
15/07:26pm 18.4 SE 14 19 1019.8 - 29.2 - Partly cloudy 9 - - - -
15/07:00pm 18.6 SE 19 30 1019.8 - 27.4 - Partly cloudy 5 - - - -
15/06:59pm 18.6 SE 18 30 1019.8 - 27.2 - Partly cloudy 5 - - - -
15/06:57pm 19.1 SE 16 29 1019.7 - 26.4 - Partly cloudy 10 - - - -
15/06:30pm 19.2 SE 13 19 1019.2 - 25.8 - Partly cloudy 10 - - - -
15/06:00pm 19.0 SE 16 23 1019.0 - 25.2 Drizzle Cloudy 10 - - - -
15/05:48pm 18.9 SE 15 21 1018.9 - 25.2 - Partly cloudy 10 - - - -
15/05:33pm 18.6 SE 17 26 1018.8 - 25.2 - Partly cloudy 6 - - - -
15/05:30pm 18.8 SE 17 26 1018.8 - 25.0 - Partly cloudy 8 - - - -
15/05:17pm 19.1 ESE 18 28 1018.6 - 24.6 - Partly cloudy 10 - - - -
15/05:00pm 19.1 SE 18 25 1018.3 - 24.2 - Partly cloudy 10 - - - -
15/04:30pm 19.1 ESE 20 30 1018.0 - 23.4 - Partly cloudy 10 - - - -
15/04:08pm 19.0 ESE 19 29 1017.8 - 23.2 - Partly cloudy 9 - - - -
15/04:00pm 19.1 SE 18 25 1017.7 - 23.0 - Partly cloudy 8 - - - -
15/03:47pm 18.9 ESE 19 26 1017.5 - 22.8 - Partly cloudy 8 - - - -
15/03:35pm 18.7 SE 16 23 1017.4 - 22.2 - Partly cloudy 6 - - - -
15/03:30pm 18.6 SE 16 25 1017.5 - 22.0 - Partly cloudy 8 - - - -
15/03:25pm 18.4 SE 15 25 1017.4 - 21.8 - Partly cloudy 6 - - - -
15/03:24pm 18.4 SE 15 23 1017.5 - 21.8 - Partly cloudy 5 - - - -
15/03:21pm 18.2 SE 16 26 1017.5 - 21.8 - Partly cloudy 5 - - - -
15/03:00pm 18.4 SE 18 27 1017.5 - 15.0 Rain Cloudy 2 - - - -
15/02:54pm 18.6 SE 17 25 1017.4 - 12.0 - Partly cloudy 4 - - - -
15/02:44pm 18.9 SSE 14 24 1017.2 - 10.2 - Partly cloudy 5 - - - -
15/02:39pm 19.0 SSE 13 19 1017.2 - 10.0 - Partly cloudy 6 - - - -
15/02:30pm 19.2 SSE 14 19 1017.2 - 8.8 - Partly cloudy 9 - - - -
15/02:00pm 20.0 SE 14 21 1017.1 - 8.2 - Partly cloudy 10 - - - -
15/01:30pm 20.4 SE 16 22 1017.4 - 8.0 - Partly cloudy 10 - - - -
15/01:08pm 20.2 SE 16 26 1017.5 - 7.8 - Partly cloudy 10 - - - -
15/01:00pm 20.2 ESE 17 23 1017.7 - 7.8 - Partly cloudy 10 - - - -
15/12:53pm 19.8 ESE 15 26 1017.7 - 7.8 - Partly cloudy 10 - - - -
15/12:48pm 19.7 SE 12 18 1017.8 - 7.8 - Partly cloudy 10 - - - -
15/12:30pm 19.1 SE 15 24 1017.9 - 7.8 - Partly cloudy 5 - - - -
15/12:18pm 19.2 SE 16 28 1018.0 - 6.8 - Partly cloudy 4 - - - -
15/12:14pm 19.6 SE 16 21 1018.1 - 6.0 - Partly cloudy 6 - - - -
15/12:11pm 19.6 SSE 15 21 1018.1 - 5.4 - Partly cloudy 10 - - - -
15/12:00pm 19.4 SSE 8 17 1018.1 - 5.0 Showers Cloudy 5 - - - -
15/11:51am 18.9 SSE 9 14 1018.2 - 4.6 - Partly cloudy 6 - - - -
15/11:30am 19.4 SE 15 22 1018.5 - 3.2 - Partly cloudy 9 - - - -
15/11:00am 20.6 ESE 16 21 1018.6 - 2.8 - Partly cloudy 10 - - - -
15/10:59am 20.2 ESE 16 21 1018.7 - 2.8 - Partly cloudy 10 - - - -
15/10:34am 19.8 ESE 16 24 1018.6 - 1.2 - Partly cloudy 6 - - - -
15/10:30am 21.1 ESE 16 22 1018.6 - 0.0 - Partly cloudy 10 - - - -
15/10:00am 20.3 SE 13 18 1018.7 - 0.0 - Partly cloudy 10 - - - -
15/09:39am 21.0 SE 17 28 1018.7 - 0.0 - Partly cloudy 10 - - - -
15/09:30am 21.1 SE 17 26 1018.7 - 0.0 - Partly cloudy 10 - - - -
15/09:00am 20.2 ESE 19 29 1018.9 - 26.0 Rain Cloudy 10 - - - -
15/08:30am 20.6 SE 19 29 1018.5 - 25.8 - Partly cloudy 10 - - - -
15/08:00am 20.0 ESE 22 28 1018.2 - 25.8 - Partly cloudy 10 - - - -
15/07:58am 20.0 ESE 22 28 1018.2 - 25.8 - Partly cloudy 10 - - - -
15/07:40am 19.7 ESE 20 30 1018.0 - 25.6 - Partly cloudy 6 - - - -
15/07:35am 20.0 SE 17 27 1017.9 - 25.2 - Partly cloudy 10 - - - -
15/07:30am 19.7 SE 18 26 1017.9 - 25.2 - Partly cloudy 9 - - - -
15/07:16am 20.7 SE 13 26 1017.7 - 25.2 - Partly cloudy 10 - - - -
15/07:00am 19.1 S 11 16 1017.7 - 25.2 - Partly cloudy 10 - - - -
15/06:30am 18.8 S 9 14 1017.5 - 25.2 - Partly cloudy 10 - - - -
15/06:00am 18.9 SSE 11 16 1017.3 - 25.2 - Cloudy 10 - - - -
15/05:30am 19.2 SE 12 16 1017.0 - 25.2 - Partly cloudy 10 - - - -
15/05:00am 19.0 SSE 11 15 1016.7 - 25.2 - Partly cloudy 10 - - - -
15/04:30am 18.8 SE 8 11 1016.7 - 25.2 - Partly cloudy 10 - - - -
15/04:00am 18.7 ESE 18 25 1016.4 - 25.2 - Partly cloudy 8 - - - -
15/03:38am 19.4 ESE 14 26 1016.1 - 25.0 - Partly cloudy 10 - - - -
15/03:30am 18.7 SSE 9 15 1016.2 - 25.0 - Partly cloudy 10 - - - -
15/03:14am 18.5 SSE 11 15 1016.1 - 25.0 - Partly cloudy 9 - - - -

Other Formats:

Comma delimited format used in spreadsheet applications
http://www.bom.gov.au/fwo/IDQ60701/IDQ60701.94592.axf

JavaScript Object Notation format (JSON) in row-major order
http://www.bom.gov.au/fwo/IDQ60701/IDQ60701.94592.json